createdAt,value
2019-05-11T00:00:02.681Z,1007.57
2019-05-11T00:01:02.686Z,1007.57
2019-05-11T00:02:02.662Z,1007.52
2019-05-11T00:03:02.646Z,1007.52
2019-05-11T00:04:02.658Z,1007.56
2019-05-11T00:05:02.636Z,1007.53
2019-05-11T00:06:02.616Z,1007.59
2019-05-11T00:07:02.606Z,1007.60
2019-05-11T00:08:02.643Z,1007.60
2019-05-11T00:09:02.595Z,1007.58
2019-05-11T00:10:02.575Z,1007.54
2019-05-11T00:11:02.574Z,1007.53
2019-05-11T00:12:02.563Z,1007.55
2019-05-11T00:13:02.553Z,1007.56
2019-05-11T00:14:02.577Z,1007.51
2019-05-11T00:15:02.520Z,1007.56
2019-05-11T00:16:02.513Z,1007.56
2019-05-11T00:17:02.540Z,1007.52
2019-05-11T00:18:02.517Z,1007.61
2019-05-11T00:19:02.474Z,1007.61
2019-05-11T00:20:02.899Z,1007.55
2019-05-11T00:21:02.450Z,1007.61
2019-05-11T00:22:02.434Z,1007.65
2019-05-11T00:23:02.425Z,1007.64
2019-05-11T00:24:02.423Z,1007.63
2019-05-11T00:25:02.409Z,1007.62
2019-05-11T00:26:02.391Z,1007.57
2019-05-11T00:27:02.396Z,1007.49
2019-05-11T00:28:02.400Z,1007.49
2019-05-11T00:29:02.364Z,1007.50
2019-05-11T00:30:02.362Z,1007.53
2019-05-11T00:31:02.343Z,1007.50
2019-05-11T00:32:02.338Z,1007.52
2019-05-11T00:33:02.315Z,1007.58
2019-05-11T00:34:02.300Z,1007.56
2019-05-11T00:35:02.308Z,1007.58
2019-05-11T00:36:02.282Z,1007.56
2019-05-11T00:37:02.288Z,1007.66
2019-05-11T00:38:02.274Z,1007.69
2019-05-11T00:39:02.253Z,1007.60
2019-05-11T00:40:13.881Z,1007.58
2019-05-11T00:41:03.244Z,1007.59
2019-05-11T00:42:02.213Z,1007.58
2019-05-11T00:43:02.203Z,1007.54
2019-05-11T00:44:02.197Z,1007.56
2019-05-11T00:45:02.179Z,1007.48
2019-05-11T00:46:02.192Z,1007.48
2019-05-11T00:47:02.174Z,1007.43
2019-05-11T00:48:02.153Z,1007.50
2019-05-11T00:49:02.141Z,1007.46
2019-05-11T00:50:02.124Z,1007.47
2019-05-11T00:51:02.112Z,1007.43
2019-05-11T00:52:02.152Z,1007.40
2019-05-11T00:53:02.100Z,1007.42
2019-05-11T00:54:02.079Z,1007.39
2019-05-11T00:55:02.070Z,1007.42
2019-05-11T00:56:02.067Z,1007.39
2019-05-11T00:57:02.069Z,1007.38
2019-05-11T00:58:02.042Z,1007.39
2019-05-11T00:59:02.027Z,1007.44
2019-05-11T01:00:02.022Z,1007.32
2019-05-11T01:01:02.019Z,1007.36
2019-05-11T01:02:01.999Z,1007.35
2019-05-11T01:03:01.989Z,1007.36
2019-05-11T01:04:02.027Z,1007.38
2019-05-11T01:05:01.960Z,1007.32
2019-05-11T01:06:01.964Z,1007.28
2019-05-11T01:07:01.938Z,1007.34
2019-05-11T01:08:01.948Z,1007.29
2019-05-11T01:09:01.925Z,1007.27
2019-05-11T01:10:01.917Z,1007.21
2019-05-11T01:11:01.892Z,1007.19
2019-05-11T01:12:01.888Z,1007.16
2019-05-11T01:13:01.881Z,1007.17
2019-05-11T01:14:01.867Z,1007.16
2019-05-11T01:15:01.858Z,1007.15
2019-05-11T01:16:01.841Z,1007.22
2019-05-11T01:17:01.831Z,1007.19
2019-05-11T01:18:01.814Z,1007.23
2019-05-11T01:19:01.803Z,1007.18
2019-05-11T01:20:01.799Z,1007.16
2019-05-11T01:21:01.779Z,1007.16
2019-05-11T01:22:01.774Z,1007.15
2019-05-11T01:23:01.783Z,1007.19
2019-05-11T01:24:01.752Z,1007.14
2019-05-11T01:25:01.828Z,1007.20
2019-05-11T01:26:01.764Z,1007.25
2019-05-11T01:27:01.717Z,1007.20
2019-05-11T01:28:01.707Z,1007.17
2019-05-11T01:29:01.695Z,1007.13
2019-05-11T01:30:01.693Z,1007.16
2019-05-11T01:31:01.676Z,1007.14
2019-05-11T01:32:01.678Z,1007.19
2019-05-11T01:33:01.646Z,1007.19
2019-05-11T01:34:01.644Z,1007.28
2019-05-11T01:35:01.670Z,1007.32
2019-05-11T01:36:01.656Z,1007.32
2019-05-11T01:37:01.601Z,1007.26
2019-05-11T01:38:01.597Z,1007.26
2019-05-11T01:39:01.581Z,1007.32
2019-05-11T01:40:01.570Z,1007.30
2019-05-11T01:41:01.564Z,1007.34
2019-05-11T01:42:01.560Z,1007.35
2019-05-11T01:43:01.575Z,1007.39
2019-05-11T01:44:08.346Z,1007.42
2019-05-11T01:45:01.514Z,1007.34
2019-05-11T01:46:01.531Z,1007.36
2019-05-11T01:47:01.603Z,1007.42
2019-05-11T01:48:01.483Z,1007.39
2019-05-11T01:49:01.478Z,1007.40
2019-05-11T01:50:01.468Z,1007.36
2019-05-11T01:51:01.446Z,1007.31
2019-05-11T01:52:01.434Z,1007.30
2019-05-11T01:53:01.449Z,1007.28
2019-05-11T01:54:01.417Z,1007.28
2019-05-11T01:55:01.401Z,1007.32
2019-05-11T01:56:01.396Z,1007.30
2019-05-11T01:57:01.414Z,1007.23
2019-05-11T01:58:01.375Z,1007.22
2019-05-11T01:59:01.366Z,1007.11
2019-05-11T02:00:01.347Z,1007.08
2019-05-11T02:01:01.341Z,1007.10
2019-05-11T02:02:01.327Z,1007.11
2019-05-11T02:03:01.332Z,1007.15
2019-05-11T02:04:01.305Z,1007.13
2019-05-11T02:05:01.302Z,1007.05
2019-05-11T02:06:01.279Z,1007.04
2019-05-11T02:07:01.272Z,1007.05
2019-05-11T02:08:01.256Z,1007.11
2019-05-11T02:09:01.305Z,1007.08
2019-05-11T02:10:01.231Z,1007.00
2019-05-11T02:11:14.965Z,1007.02
2019-05-11T02:12:02.209Z,1006.99
2019-05-11T02:13:01.213Z,1006.96
2019-05-11T02:14:01.188Z,1007.01
2019-05-11T02:15:01.212Z,1006.97
2019-05-11T02:16:01.181Z,1006.97
2019-05-11T02:17:01.175Z,1006.98
2019-05-11T02:18:01.190Z,1006.96
2019-05-11T02:19:01.155Z,1007.03
2019-05-11T02:20:01.154Z,1006.99
2019-05-11T02:21:01.126Z,1006.94
2019-05-11T02:22:01.108Z,1006.93
2019-05-11T02:23:01.097Z,1006.95
2019-05-11T02:24:01.091Z,1006.92
2019-05-11T02:25:01.068Z,1006.89
2019-05-11T02:26:01.063Z,1006.87
2019-05-11T02:27:01.044Z,1006.92
2019-05-11T02:28:01.034Z,1006.86
2019-05-11T02:29:01.021Z,1006.89
2019-05-11T02:30:01.040Z,1006.91
2019-05-11T02:31:00.994Z,1006.88
2019-05-11T02:32:00.982Z,1006.94
2019-05-11T02:33:00.970Z,1006.90
2019-05-11T02:34:00.971Z,1006.86
2019-05-11T02:35:00.985Z,1006.82
2019-05-11T02:36:00.963Z,1006.85
2019-05-11T02:37:00.925Z,1006.86
2019-05-11T02:38:00.917Z,1006.84
2019-05-11T02:39:00.912Z,1006.85
2019-05-11T02:40:00.896Z,1006.88
2019-05-11T02:41:00.918Z,1006.89
2019-05-11T02:42:00.882Z,1006.85
2019-05-11T02:43:00.859Z,1006.90
2019-05-11T02:44:00.856Z,1006.92
2019-05-11T02:45:00.839Z,1006.95
2019-05-11T02:46:00.828Z,1006.88
2019-05-11T02:47:00.827Z,1006.95
2019-05-11T02:48:00.811Z,1006.91
2019-05-11T02:49:00.792Z,1006.89
2019-05-11T02:50:00.782Z,1006.94
2019-05-11T02:51:00.781Z,1006.93
2019-05-11T02:52:00.771Z,1006.91
2019-05-11T02:53:00.744Z,1006.99
2019-05-11T02:54:00.739Z,1007.01
2019-05-11T02:55:00.721Z,1006.98
2019-05-11T02:56:00.729Z,1007.10
2019-05-11T02:57:00.725Z,1007.06
2019-05-11T02:58:00.689Z,1007.10
2019-05-11T02:59:00.695Z,1007.14
2019-05-11T03:00:00.684Z,1007.16
2019-05-11T03:01:00.675Z,1007.15
2019-05-11T03:02:00.680Z,1007.18
2019-05-11T03:03:00.782Z,1007.17
2019-05-11T03:04:00.628Z,1007.23
2019-05-11T03:05:00.617Z,1007.24
2019-05-11T03:06:00.617Z,1007.26
2019-05-11T03:07:00.606Z,1007.23
2019-05-11T03:08:00.602Z,1007.14
2019-05-11T03:09:00.575Z,1007.18
2019-05-11T03:10:00.563Z,1007.21
2019-05-11T03:11:00.564Z,1007.26
2019-05-11T03:12:00.554Z,1007.21
2019-05-11T03:13:00.558Z,1007.19
2019-05-11T03:14:00.558Z,1007.22
2019-05-11T03:15:00.507Z,1007.24
2019-05-11T03:16:00.510Z,1007.21
2019-05-11T03:17:00.489Z,1007.23
2019-05-11T03:18:00.482Z,1007.32
2019-05-11T03:19:00.483Z,1007.29
2019-05-11T03:20:00.451Z,1007.34
2019-05-11T03:21:00.446Z,1007.33
2019-05-11T03:22:00.431Z,1007.36
2019-05-11T03:23:00.423Z,1007.32
2019-05-11T03:24:00.443Z,1007.37
2019-05-11T03:25:00.424Z,1007.33
2019-05-11T03:26:00.389Z,1007.38
2019-05-11T03:27:00.376Z,1007.41
2019-05-11T03:28:00.363Z,1007.46
2019-05-11T03:29:00.366Z,1007.44
2019-05-11T03:30:01.716Z,1007.50
2019-05-11T03:31:00.347Z,1007.50
2019-05-11T03:32:00.353Z,1007.52
2019-05-11T03:33:00.333Z,1007.52
2019-05-11T03:34:00.302Z,1007.53
2019-05-11T03:35:00.355Z,1007.56
2019-05-11T03:36:00.282Z,1007.45
2019-05-11T03:37:00.271Z,1007.55
2019-05-11T03:38:00.253Z,1007.52
2019-05-11T03:39:00.247Z,1007.58
2019-05-11T03:40:00.234Z,1007.54
2019-05-11T03:41:00.229Z,1007.53
2019-05-11T03:42:13.813Z,1007.50
2019-05-11T03:43:01.202Z,1007.46
2019-05-11T03:44:00.181Z,1007.48
2019-05-11T03:45:00.178Z,1007.53
2019-05-11T03:46:00.199Z,1007.52
2019-05-11T03:47:00.179Z,1007.49
2019-05-11T03:48:00.139Z,1007.49
2019-05-11T03:49:00.138Z,1007.47
2019-05-11T03:50:00.121Z,1007.40
2019-05-11T03:51:00.104Z,1007.40
2019-05-11T03:52:00.105Z,1007.37
2019-05-11T03:53:00.082Z,1007.30
2019-05-11T03:54:00.071Z,1007.35
2019-05-11T03:55:00.065Z,1007.33
2019-05-11T03:56:00.053Z,1007.30
2019-05-11T03:57:00.059Z,1007.27
2019-05-11T03:58:00.029Z,1007.20
2019-05-11T03:59:00.019Z,1007.32
2019-05-11T04:00:00.017Z,1007.29
2019-05-11T04:01:00.003Z,1007.26
2019-05-11T04:01:59.988Z,1007.29
2019-05-11T04:02:59.979Z,1007.34
2019-05-11T04:03:59.976Z,1007.33
2019-05-11T04:04:59.953Z,1007.36
2019-05-11T04:05:59.945Z,1007.38
2019-05-11T04:06:59.934Z,1007.34
2019-05-11T04:07:59.940Z,1007.43
2019-05-11T04:08:59.924Z,1007.41
2019-05-11T04:09:59.898Z,1007.46
2019-05-11T04:10:59.885Z,1007.48
2019-05-11T04:11:59.877Z,1007.50
2019-05-11T04:12:59.875Z,1007.54
2019-05-11T04:13:59.871Z,1007.59
2019-05-11T04:14:59.858Z,1007.64
2019-05-11T04:15:59.835Z,1007.60
2019-05-11T04:16:59.815Z,1007.61
2019-05-11T04:17:59.809Z,1007.62
2019-05-11T04:18:59.826Z,1007.59
2019-05-11T04:19:59.781Z,1007.58
2019-05-11T04:20:59.776Z,1007.59
2019-05-11T04:21:59.766Z,1007.61
2019-05-11T04:22:59.751Z,1007.61
2019-05-11T04:23:59.736Z,1007.58
2019-05-11T04:24:59.742Z,1007.59
2019-05-11T04:25:59.721Z,1007.54
2019-05-11T04:26:59.702Z,1007.55
2019-05-11T04:27:59.709Z,1007.60
2019-05-11T04:28:59.690Z,1007.55
2019-05-11T04:29:59.677Z,1007.45
2019-05-11T04:30:59.674Z,1007.50
2019-05-11T04:31:59.658Z,1007.52
2019-05-11T04:32:59.644Z,1007.43
2019-05-11T04:33:59.626Z,1007.45
2019-05-11T04:34:59.621Z,1007.42
2019-05-11T04:35:59.650Z,1007.48
2019-05-11T04:36:59.593Z,1007.43
2019-05-11T04:37:59.597Z,1007.50
2019-05-11T04:38:59.576Z,1007.43
2019-05-11T04:39:59.562Z,1007.42
2019-05-11T04:40:59.555Z,1007.44
2019-05-11T04:41:59.556Z,1007.44
2019-05-11T04:42:59.555Z,1007.40
2019-05-11T04:43:59.529Z,1007.46
2019-05-11T04:44:59.505Z,1007.42
2019-05-11T04:45:59.491Z,1007.42
2019-05-11T04:46:59.511Z,1007.43
2019-05-11T04:47:59.480Z,1007.47
2019-05-11T04:48:59.467Z,1007.49
2019-05-11T04:49:59.451Z,1007.48
2019-05-11T04:50:59.444Z,1007.42
2019-05-11T04:51:59.434Z,1007.47
2019-05-11T04:52:59.434Z,1007.36
2019-05-11T04:53:59.408Z,1007.40
2019-05-11T04:54:59.409Z,1007.40
2019-05-11T04:55:59.390Z,1007.40
2019-05-11T04:56:59.394Z,1007.38
2019-05-11T04:57:59.367Z,1007.37
2019-05-11T04:58:59.371Z,1007.37
2019-05-11T04:59:59.349Z,1007.39
2019-05-11T05:00:59.336Z,1007.34
2019-05-11T05:01:59.340Z,1007.29
2019-05-11T05:02:59.321Z,1007.36
2019-05-11T05:04:13.521Z,1007.32
2019-05-11T05:05:00.291Z,1007.30
2019-05-11T05:06:20.853Z,1007.36
2019-05-11T05:07:05.132Z,1007.33
2019-05-11T05:08:09.025Z,1007.29
2019-05-11T05:09:03.807Z,1007.32
2019-05-11T05:09:59.229Z,1007.33
2019-05-11T05:11:00.784Z,1007.35
2019-05-11T05:11:59.212Z,1007.39
2019-05-11T05:13:10.311Z,1007.35
2019-05-11T05:14:01.872Z,1007.38
2019-05-11T05:15:00.175Z,1007.40
2019-05-11T05:15:59.175Z,1007.36
2019-05-11T05:16:59.151Z,1007.36
2019-05-11T05:17:59.140Z,1007.37
2019-05-11T05:18:59.137Z,1007.36
2019-05-11T05:19:59.122Z,1007.39
2019-05-11T05:20:59.110Z,1007.40
2019-05-11T05:21:59.097Z,1007.38
2019-05-11T05:22:59.086Z,1007.31
2019-05-11T05:23:59.110Z,1007.39
2019-05-11T05:24:59.068Z,1007.31
2019-05-11T05:25:59.055Z,1007.37
2019-05-11T05:26:59.045Z,1007.36
2019-05-11T05:27:59.085Z,1007.34
2019-05-11T05:28:59.051Z,1007.34
2019-05-11T05:29:59.012Z,1007.35
2019-05-11T05:30:58.991Z,1007.33
2019-05-11T05:31:58.992Z,1007.34
2019-05-11T05:32:58.974Z,1007.27
2019-05-11T05:34:01.380Z,1007.32
2019-05-11T05:34:58.984Z,1007.33
2019-05-11T05:35:58.939Z,1007.29
2019-05-11T05:36:58.970Z,1007.27
2019-05-11T05:37:58.929Z,1007.28
2019-05-11T05:38:58.958Z,1007.34
2019-05-11T05:39:58.901Z,1007.31
2019-05-11T05:40:58.894Z,1007.32
2019-05-11T05:41:58.870Z,1007.32
2019-05-11T05:42:58.857Z,1007.32
2019-05-11T05:43:58.868Z,1007.24
2019-05-11T05:44:58.843Z,1007.32
2019-05-11T05:45:58.827Z,1007.29
2019-05-11T05:46:58.817Z,1007.18
2019-05-11T05:47:58.815Z,1007.29
2019-05-11T05:48:58.800Z,1007.28
2019-05-11T05:49:58.797Z,1007.31
2019-05-11T05:50:58.771Z,1007.26
2019-05-11T05:51:58.847Z,1007.27
2019-05-11T05:52:58.749Z,1007.21
2019-05-11T05:53:58.746Z,1007.24
2019-05-11T05:54:58.739Z,1007.21
2019-05-11T05:55:58.714Z,1007.30
2019-05-11T05:56:58.743Z,1007.29
2019-05-11T05:57:58.743Z,1007.30
2019-05-11T05:58:58.686Z,1007.30
2019-05-11T05:59:58.681Z,1007.37
2019-05-11T06:00:58.661Z,1007.39
2019-05-11T06:01:58.658Z,1007.33
2019-05-11T06:02:58.647Z,1007.33
2019-05-11T06:03:58.630Z,1007.36
2019-05-11T06:04:58.631Z,1007.32
2019-05-11T06:05:58.616Z,1007.35
2019-05-11T06:06:58.619Z,1007.36
2019-05-11T06:07:58.589Z,1007.39
2019-05-11T06:08:58.613Z,1007.37
2019-05-11T06:09:58.563Z,1007.36
2019-05-11T06:10:58.608Z,1007.41
2019-05-11T06:11:58.543Z,1007.32
2019-05-11T06:12:58.523Z,1007.37
2019-05-11T06:13:58.512Z,1007.41
2019-05-11T06:14:58.503Z,1007.37
2019-05-11T06:15:58.541Z,1007.39
2019-05-11T06:16:58.514Z,1007.36
2019-05-11T06:18:00.608Z,1007.38
2019-05-11T06:18:58.514Z,1007.35
2019-05-11T06:19:58.479Z,1007.36
2019-05-11T06:20:58.433Z,1007.37
2019-05-11T06:21:58.429Z,1007.39
2019-05-11T06:22:58.434Z,1007.34
2019-05-11T06:24:05.458Z,1007.30
2019-05-11T06:24:59.389Z,1007.35
2019-05-11T06:25:58.384Z,1007.31
2019-05-11T06:26:58.378Z,1007.30
2019-05-11T06:27:58.385Z,1007.36
2019-05-11T06:28:58.357Z,1007.33
2019-05-11T06:29:58.335Z,1007.41
2019-05-11T06:30:58.330Z,1007.35
2019-05-11T06:31:58.322Z,1007.33
2019-05-11T06:32:58.342Z,1007.29
2019-05-11T06:33:58.292Z,1007.33
2019-05-11T06:34:58.284Z,1007.31
2019-05-11T06:35:58.291Z,1007.32
2019-05-11T06:36:58.260Z,1007.38
2019-05-11T06:37:58.253Z,1007.33
2019-05-11T06:38:58.238Z,1007.31
2019-05-11T06:39:58.273Z,1007.38
2019-05-11T06:40:58.229Z,1007.36
2019-05-11T06:41:58.223Z,1007.35
2019-05-11T06:42:58.195Z,1007.37
2019-05-11T06:44:01.631Z,1007.30
2019-05-11T06:44:58.166Z,1007.36
2019-05-11T06:45:58.156Z,1007.34
2019-05-11T06:46:58.180Z,1007.34
2019-05-11T06:47:58.137Z,1007.32
2019-05-11T06:48:58.131Z,1007.34
2019-05-11T06:49:58.110Z,1007.31
2019-05-11T06:50:58.110Z,1007.28
2019-05-11T06:51:58.344Z,1007.28
2019-05-11T06:52:58.087Z,1007.33
2019-05-11T06:53:58.109Z,1007.29
2019-05-11T06:54:58.057Z,1007.34
2019-05-11T06:55:58.045Z,1007.26
2019-05-11T06:56:58.034Z,1007.29
2019-05-11T06:57:58.026Z,1007.31
2019-05-11T06:58:58.029Z,1007.27
2019-05-11T06:59:58.025Z,1007.32
2019-05-11T07:00:58.034Z,1007.26
2019-05-11T07:01:57.988Z,1007.32
2019-05-11T07:02:57.964Z,1007.32
2019-05-11T07:03:57.961Z,1007.36
2019-05-11T07:04:57.967Z,1007.27
2019-05-11T07:05:57.941Z,1007.26
2019-05-11T07:06:57.929Z,1007.27
2019-05-11T07:07:57.919Z,1007.24
2019-05-11T07:08:57.914Z,1007.20
2019-05-11T07:09:57.924Z,1007.19
2019-05-11T07:10:57.884Z,1007.17
2019-05-11T07:11:57.904Z,1007.15
2019-05-11T07:12:57.861Z,1007.20
2019-05-11T07:13:57.850Z,1007.15
2019-05-11T07:14:57.842Z,1007.16
2019-05-11T07:15:57.826Z,1007.17
2019-05-11T07:16:57.824Z,1007.08
2019-05-11T07:17:57.801Z,1007.09
2019-05-11T07:18:57.789Z,1007.12
2019-05-11T07:19:57.790Z,1007.14
2019-05-11T07:20:57.766Z,1007.12
2019-05-11T07:21:57.756Z,1007.07
2019-05-11T07:22:57.761Z,1007.16
2019-05-11T07:23:57.760Z,1007.03
2019-05-11T07:24:57.774Z,1007.10
2019-05-11T07:26:00.186Z,1007.08
2019-05-11T07:26:57.735Z,1007.04
2019-05-11T07:27:57.692Z,1007.11
2019-05-11T07:28:57.684Z,1007.13
2019-05-11T07:29:57.667Z,1007.09
2019-05-11T07:30:57.666Z,1007.04
2019-05-11T07:32:04.947Z,1007.02
2019-05-11T07:33:01.056Z,1006.98
2019-05-11T07:33:58.749Z,1006.98
2019-05-11T07:34:57.818Z,1007.00
2019-05-11T07:35:58.301Z,1007.00
2019-05-11T07:36:57.750Z,1006.97
2019-05-11T07:37:58.174Z,1006.95
2019-05-11T07:38:58.144Z,1007.02
2019-05-11T07:39:58.156Z,1007.02
2019-05-11T07:40:58.223Z,1007.00
2019-05-11T07:41:58.439Z,1006.96
2019-05-11T07:42:58.973Z,1006.96
2019-05-11T07:43:59.054Z,1006.99
2019-05-11T07:44:58.257Z,1007.00
2019-05-11T07:45:58.457Z,1007.06
2019-05-11T07:46:58.655Z,1007.05
2019-05-11T07:47:58.929Z,1007.03
2019-05-11T07:48:58.506Z,1007.01
2019-05-11T07:49:58.045Z,1007.07
2019-05-11T07:50:58.449Z,1007.04
2019-05-11T07:51:58.650Z,1007.01
2019-05-11T07:52:58.842Z,1007.04
2019-05-11T07:53:57.925Z,1007.01
2019-05-11T07:54:58.052Z,1006.96
2019-05-11T07:55:57.860Z,1006.98
2019-05-11T07:56:58.408Z,1006.98
2019-05-11T07:57:58.613Z,1006.98
2019-05-11T07:58:58.029Z,1007.03
2019-05-11T07:59:57.939Z,1007.04
2019-05-11T08:00:58.216Z,1007.02
2019-05-11T08:01:58.275Z,1007.02
2019-05-11T08:02:58.535Z,1007.01
2019-05-11T08:03:58.558Z,1006.93
2019-05-11T08:04:58.698Z,1006.97
2019-05-11T08:05:58.274Z,1006.93
2019-05-11T08:06:58.427Z,1006.96
2019-05-11T08:07:59.323Z,1006.89
2019-05-11T08:08:58.850Z,1006.95
2019-05-11T08:09:58.678Z,1006.89
2019-05-11T08:10:58.678Z,1006.93
2019-05-11T08:11:58.417Z,1006.91
2019-05-11T08:12:58.762Z,1006.95
2019-05-11T08:13:58.444Z,1006.91
2019-05-11T08:15:05.944Z,1006.88
2019-05-11T08:15:58.194Z,1006.97
2019-05-11T08:16:59.483Z,1006.93
2019-05-11T08:17:57.845Z,1006.92
2019-05-11T08:18:58.825Z,1006.82
2019-05-11T08:19:58.040Z,1006.86
2019-05-11T08:20:58.287Z,1006.89
2019-05-11T08:21:58.270Z,1006.83
2019-05-11T08:22:58.699Z,1006.77
2019-05-11T08:23:58.798Z,1006.82
2019-05-11T08:24:58.586Z,1006.75
2019-05-11T08:25:58.066Z,1006.83
2019-05-11T08:26:58.248Z,1006.84
2019-05-11T08:27:58.851Z,1006.83
2019-05-11T08:28:57.865Z,1006.83
2019-05-11T08:29:57.965Z,1006.81
2019-05-11T08:30:57.898Z,1006.80
2019-05-11T08:31:57.978Z,1006.78
2019-05-11T08:32:58.206Z,1006.82
2019-05-11T08:33:58.340Z,1006.75
2019-05-11T08:34:58.056Z,1006.76
2019-05-11T08:35:58.301Z,1006.93
2019-05-11T08:36:58.413Z,1006.91
2019-05-11T08:37:58.375Z,1006.96
2019-05-11T08:38:58.520Z,1006.94
2019-05-11T08:39:58.504Z,1006.84
2019-05-11T08:40:59.007Z,1006.96
2019-05-11T08:41:58.969Z,1006.95
2019-05-11T08:42:58.290Z,1006.96
2019-05-11T08:43:58.689Z,1006.84
2019-05-11T08:45:14.678Z,1006.72
2019-05-11T08:45:58.042Z,1006.79
2019-05-11T08:46:58.255Z,1006.71
2019-05-11T08:47:57.947Z,1006.78
2019-05-11T08:48:59.354Z,1006.78
2019-05-11T08:49:58.844Z,1006.78
2019-05-11T08:50:58.158Z,1006.77
2019-05-11T08:51:57.835Z,1006.79
2019-05-11T08:52:58.056Z,1006.83
2019-05-11T08:53:58.317Z,1006.80
2019-05-11T08:54:57.774Z,1006.86
2019-05-11T08:55:58.833Z,1006.81
2019-05-11T08:56:58.742Z,1006.83
2019-05-11T08:57:58.542Z,1006.81
2019-05-11T08:58:58.813Z,1006.81
2019-05-11T08:59:57.869Z,1006.91
2019-05-11T09:00:58.263Z,1006.87
2019-05-11T09:01:58.744Z,1006.91
2019-05-11T09:02:58.251Z,1006.92
2019-05-11T09:03:58.353Z,1006.84
2019-05-11T09:04:58.852Z,1006.73
2019-05-11T09:05:57.893Z,1006.75
2019-05-11T09:06:58.706Z,1006.71
2019-05-11T09:07:57.805Z,1006.69
2019-05-11T09:08:58.343Z,1006.67
2019-05-11T09:09:58.550Z,1006.62
2019-05-11T09:10:58.253Z,1006.64
2019-05-11T09:11:58.874Z,1006.62
2019-05-11T09:12:58.860Z,1006.67
2019-05-11T09:13:57.832Z,1006.62
2019-05-11T09:14:58.128Z,1006.66
2019-05-11T09:15:58.673Z,1006.67
2019-05-11T09:16:57.787Z,1006.73
2019-05-11T09:17:57.789Z,1006.64
2019-05-11T09:18:58.131Z,1006.72
2019-05-11T09:19:58.146Z,1006.68
2019-05-11T09:20:57.713Z,1006.67
2019-05-11T09:21:58.600Z,1006.59
2019-05-11T09:22:58.714Z,1006.69
2019-05-11T09:23:57.905Z,1006.67
2019-05-11T09:24:58.250Z,1006.64
2019-05-11T09:25:58.399Z,1006.66
2019-05-11T09:26:58.391Z,1006.69
2019-05-11T09:27:58.515Z,1006.63
2019-05-11T09:28:58.264Z,1006.68
2019-05-11T09:29:58.153Z,1006.63
2019-05-11T09:30:57.793Z,1006.63
2019-05-11T09:31:58.246Z,1006.62
2019-05-11T09:32:58.108Z,1006.71
2019-05-11T09:33:58.429Z,1006.64
2019-05-11T09:34:57.982Z,1006.72
2019-05-11T09:35:58.339Z,1006.65
2019-05-11T09:36:58.414Z,1006.65
2019-05-11T09:37:58.607Z,1006.70
2019-05-11T09:38:58.099Z,1006.68
2019-05-11T09:39:58.293Z,1006.68
2019-05-11T09:40:58.416Z,1006.75
2019-05-11T09:41:58.116Z,1006.73
2019-05-11T09:42:58.330Z,1006.73
2019-05-11T09:43:58.513Z,1006.79
2019-05-11T09:44:57.776Z,1006.74
2019-05-11T09:45:58.213Z,1006.71
2019-05-11T09:47:00.029Z,1006.72
2019-05-11T09:47:58.176Z,1006.73
2019-05-11T09:48:56.137Z,1006.70
2019-05-11T09:49:58.253Z,1006.69
2019-05-11T09:50:58.575Z,1006.72
2019-05-11T09:51:56.151Z,1006.65
2019-05-11T09:52:58.118Z,1006.65
2019-05-11T09:53:58.605Z,1006.64
2019-05-11T09:54:57.985Z,1006.64
2019-05-11T09:55:58.517Z,1006.63
2019-05-11T09:56:57.829Z,1006.58
2019-05-11T09:57:57.992Z,1006.58
2019-05-11T09:58:58.020Z,1006.60
2019-05-11T09:59:58.186Z,1006.60
2019-05-11T10:00:58.440Z,1006.59
2019-05-11T10:01:55.983Z,1006.58
2019-05-11T10:02:57.713Z,1006.62
2019-05-11T10:03:57.891Z,1006.55
2019-05-11T10:04:57.822Z,1006.64
2019-05-11T10:05:57.987Z,1006.60
2019-05-11T10:06:58.373Z,1006.56
2019-05-11T10:07:55.955Z,1006.58
2019-05-11T10:08:57.888Z,1006.54
2019-05-11T10:09:57.910Z,1006.56
2019-05-11T10:10:57.929Z,1006.57
2019-05-11T10:11:58.277Z,1006.61
2019-05-11T10:12:55.863Z,1006.54
2019-05-11T10:13:57.778Z,1006.62
2019-05-11T10:14:55.835Z,1006.57
2019-05-11T10:16:04.689Z,1006.61
2019-05-11T10:16:58.455Z,1006.60
2019-05-11T10:17:55.809Z,1006.63
2019-05-11T10:18:55.793Z,1006.60
2019-05-11T10:19:58.042Z,1006.64
2019-05-11T10:20:55.773Z,1006.66
2019-05-11T10:21:57.861Z,1006.63
2019-05-11T10:22:57.925Z,1006.63
2019-05-11T10:23:57.831Z,1006.58
2019-05-11T10:24:58.055Z,1006.63
2019-05-11T10:25:55.719Z,1006.63
2019-05-11T10:26:57.845Z,1006.64
2019-05-11T10:27:57.843Z,1006.69
2019-05-11T10:28:55.696Z,1006.60
2019-05-11T10:29:55.696Z,1006.59
2019-05-11T10:30:57.697Z,1006.62
2019-05-11T10:31:55.645Z,1006.57
2019-05-11T10:32:57.765Z,1006.58
2019-05-11T10:33:57.917Z,1006.61
2019-05-11T10:34:55.622Z,1006.60
2019-05-11T10:35:55.627Z,1006.63
2019-05-11T10:36:57.770Z,1006.58
2019-05-11T10:37:55.588Z,1006.66
2019-05-11T10:38:55.575Z,1006.66
2019-05-11T10:39:57.651Z,1006.67
2019-05-11T10:40:57.990Z,1006.62
2019-05-11T10:41:55.540Z,1006.68
2019-05-11T10:42:55.543Z,1006.63
2019-05-11T10:43:57.779Z,1006.62
2019-05-11T10:44:55.502Z,1006.70
2019-05-11T10:45:55.521Z,1006.63
2019-05-11T10:46:55.486Z,1006.67
2019-05-11T10:47:58.618Z,1006.62
2019-05-11T10:48:58.767Z,1006.61
2019-05-11T10:49:57.712Z,1006.62
2019-05-11T10:50:57.508Z,1006.58
2019-05-11T10:51:55.428Z,1006.63
2019-05-11T10:52:55.415Z,1006.61
2019-05-11T10:53:57.596Z,1006.60
2019-05-11T10:54:55.405Z,1006.65
2019-05-11T10:55:55.431Z,1006.59
2019-05-11T10:56:57.732Z,1006.62
2019-05-11T10:57:55.362Z,1006.60
2019-05-11T10:58:55.375Z,1006.58
2019-05-11T10:59:57.806Z,1006.58
2019-05-11T11:00:55.331Z,1006.52
2019-05-11T11:01:55.317Z,1006.54
2019-05-11T11:02:55.310Z,1006.54
2019-05-11T11:03:55.290Z,1006.54
2019-05-11T11:04:55.280Z,1006.54
2019-05-11T11:05:55.270Z,1006.51
2019-05-11T11:06:55.295Z,1006.49
2019-05-11T11:07:55.257Z,1006.53
2019-05-11T11:08:55.283Z,1006.51
2019-05-11T11:09:55.237Z,1006.49
2019-05-11T11:10:55.217Z,1006.52
2019-05-11T11:11:55.224Z,1006.49
2019-05-11T11:12:55.195Z,1006.45
2019-05-11T11:13:55.203Z,1006.46
2019-05-11T11:14:55.176Z,1006.48
2019-05-11T11:15:55.161Z,1006.48
2019-05-11T11:16:55.147Z,1006.48
2019-05-11T11:17:55.137Z,1006.52
2019-05-11T11:18:55.146Z,1006.49
2019-05-11T11:19:55.116Z,1006.49
2019-05-11T11:20:55.105Z,1006.49
2019-05-11T11:21:55.096Z,1006.50
2019-05-11T11:22:55.084Z,1006.47
2019-05-11T11:23:55.077Z,1006.44
2019-05-11T11:24:55.068Z,1006.47
2019-05-11T11:25:55.043Z,1006.41
2019-05-11T11:26:55.032Z,1006.49
2019-05-11T11:27:55.031Z,1006.50
2019-05-11T11:28:55.010Z,1006.50
2019-05-11T11:29:55.010Z,1006.49
2019-05-11T11:30:54.990Z,1006.52
2019-05-11T11:31:54.982Z,1006.45
2019-05-11T11:32:54.971Z,1006.47
2019-05-11T11:33:57.811Z,1006.44
2019-05-11T11:34:54.976Z,1006.51
2019-05-11T11:35:54.941Z,1006.48
2019-05-11T11:36:54.933Z,1006.48
2019-05-11T11:37:54.914Z,1006.47
2019-05-11T11:38:54.907Z,1006.44
2019-05-11T11:39:54.905Z,1006.49
2019-05-11T11:40:54.894Z,1006.51
2019-05-11T11:41:54.874Z,1006.51
2019-05-11T11:42:54.863Z,1006.49
2019-05-11T11:43:54.843Z,1006.51
2019-05-11T11:44:54.862Z,1006.46
2019-05-11T11:45:54.836Z,1006.48
2019-05-11T11:46:55.490Z,1006.43
2019-05-11T11:47:54.812Z,1006.48
2019-05-11T11:48:54.793Z,1006.53
2019-05-11T11:49:54.782Z,1006.51
2019-05-11T11:50:54.779Z,1006.47
2019-05-11T11:51:54.768Z,1006.49
2019-05-11T11:52:54.748Z,1006.52
2019-05-11T11:53:54.749Z,1006.48
2019-05-11T11:54:54.727Z,1006.46
2019-05-11T11:55:54.715Z,1006.52
2019-05-11T11:56:54.716Z,1006.50
2019-05-11T11:57:54.696Z,1006.46
2019-05-11T11:58:54.676Z,1006.47
2019-05-11T11:59:54.670Z,1006.53
2019-05-11T12:00:54.653Z,1006.55
2019-05-11T12:01:54.669Z,1006.52
2019-05-11T12:02:54.636Z,1006.54
2019-05-11T12:03:54.630Z,1006.55
2019-05-11T12:04:54.609Z,1006.55